»·PEaware :: N1SC 1L8-KDTA

N1SC :: 1L8-KDTA

FLIGHT INFORMATION

Flight Status: Arrived
Operator: Privately registered:
United States
More flights under this callsign
Pilot: Anonymous 10181 (10181)
Aircraft: CESSNA 510 CITATION MUSTANG
(C510)
More flights by this aircraft type
Origin: 1L8 Hurricane
United States
Destination: KDTA Delta Mun
United States
More flights between these airports :: More routes between these airports
Route: HURTU V257 DTA RUBOY
File this flight plan on PilotEdge
Remarks: Happy Tuesday! <3
Altitude:
(Current/Filed)
27,000ft
Speed:
(Current/Filed)
320kts
Departed: 24-Jan-23 06:37 PM
Arrived: 24-Jan-23 07:30 PM
Distance/Time
Traveled:
140nm/0:53
Distance/Time
To Go:
Arrived

Flight Plot

Page will automatically refresh every two minutes.

Flight plan parsing failed; only flown route is shown


Map Options




Map Legend


Flown Route
Filed Route
Departure Airport
Arrival Airport
Navaid (VOR, NDB)
Fix

Horizontal Profiles

Position Reports

Time Latitude Longitude Heading Altitude Ground
Speed
24-Jan-23 18:21 37.140723 -113.303933 301 3421ft 0kts
24-Jan-23 18:22 37.140723 -113.303933 301 3421ft 0kts
24-Jan-23 18:23 37.140723 -113.303933 301 3421ft 0kts
24-Jan-23 18:24 37.140723 -113.303933 301 3421ft 0kts
24-Jan-23 18:25 37.140723 -113.303933 301 3421ft 0kts
24-Jan-23 18:26 37.140723 -113.303933 301 3421ft 0kts
24-Jan-23 18:27 37.140724 -113.303935 301 3421ft 0kts
24-Jan-23 18:28 37.140053 -113.305288 233 3425ft 0kts
24-Jan-23 18:29 37.140053 -113.305288 233 3425ft 0kts
24-Jan-23 18:30 37.140053 -113.305288 233 3425ft 0kts
24-Jan-23 18:31 37.140053 -113.305288 233 3425ft 0kts
24-Jan-23 18:32 37.140050 -113.305297 242 3425ft 0kts
24-Jan-23 18:33 37.140780 -113.305894 19 3428ft 10kts
24-Jan-23 18:34 37.144544 -113.304279 37 3427ft 4kts
24-Jan-23 18:35 37.144604 -113.304306 197 3430ft 8kts
24-Jan-23 18:36 37.116475 -113.322334 218 5777ft 143kts
24-Jan-23 18:37 37.104500 -113.298172 25 8259ft 151kts
24-Jan-23 18:38 37.131982 -113.250463 59 11129ft 188kts
24-Jan-23 18:39 37.155608 -113.190043 37 13773ft 190kts
24-Jan-23 18:40 37.193493 -113.140648 39 16430ft 201kts
24-Jan-23 18:41 37.227681 -113.081689 42 18898ft 213kts
24-Jan-23 18:42 37.262346 -113.018480 43 20877ft 221kts
24-Jan-23 18:43 37.294615 -112.951004 54 22726ft 243kts
24-Jan-23 18:44 37.332890 -112.886050 24 24562ft 224kts
24-Jan-23 18:45 37.381958 -112.836201 8 26171ft 215kts
24-Jan-23 18:46 37.440524 -112.821493 8 27378ft 221kts
24-Jan-23 18:47 37.496578 -112.777544 1 26896ft 243kts
24-Jan-23 18:48 37.564402 -112.779297 3 27400ft 251kts
24-Jan-23 18:49 37.633551 -112.755943 8 27424ft 259kts
24-Jan-23 18:50 37.703710 -112.732043 8 27452ft 262kts
24-Jan-23 18:51 37.774320 -112.707946 9 27462ft 262kts
24-Jan-23 18:52 37.845093 -112.683759 9 27491ft 266kts
24-Jan-23 18:53 37.916340 -112.659321 9 27495ft 266kts
24-Jan-23 18:54 37.987835 -112.634787 9 27497ft 266kts
24-Jan-23 18:55 38.063012 -112.608915 9 26088ft 293kts
24-Jan-23 18:56 38.143945 -112.581002 9 24361ft 310kts
24-Jan-23 18:57 38.224884 -112.577824 340 23509ft 278kts
24-Jan-23 18:58 38.295069 -112.614681 339 23029ft 270kts
24-Jan-23 18:59 38.368363 -112.630854 2 22030ft 279kts
24-Jan-23 19:00 38.445850 -112.620045 1 21008ft 280kts
24-Jan-23 19:01 38.523745 -112.609719 1 20033ft 282kts
24-Jan-23 19:02 38.601581 -112.599399 1 19089ft 280kts
24-Jan-23 19:03 38.679215 -112.589106 1 18040ft 280kts
24-Jan-23 19:04 38.757122 -112.578753 2 16991ft 282kts
24-Jan-23 19:05 38.833882 -112.568493 2 16555ft 269kts
24-Jan-23 19:06 38.909767 -112.558383 2 15654ft 279kts
24-Jan-23 19:07 38.985960 -112.548255 2 14679ft 252kts
24-Jan-23 19:08 39.050587 -112.539592 2 13576ft 225kts
24-Jan-23 19:09 39.114774 -112.530954 2 12162ft 238kts
24-Jan-23 19:10 39.183096 -112.521717 3 10811ft 253kts
24-Jan-23 19:11 39.253931 -112.512113 3 9570ft 254kts
24-Jan-23 19:12 39.320396 -112.504874 357 9549ft 227kts
24-Jan-23 19:13 39.381952 -112.504423 358 9541ft 217kts
24-Jan-23 19:14 39.442074 -112.503587 358 9537ft 215kts
24-Jan-23 19:15 39.501700 -112.502748 358 9550ft 214kts
24-Jan-23 19:16 39.561273 -112.501907 358 9583ft 213kts
24-Jan-23 19:17 39.620660 -112.501064 358 9606ft 213kts
24-Jan-23 19:18 39.679691 -112.494027 15 9628ft 217kts
24-Jan-23 19:19 39.737032 -112.470329 13 9648ft 217kts
24-Jan-23 19:20 39.776164 -112.416687 89 9646ft 245kts
24-Jan-23 19:21 39.723705 -112.380221 213 9645ft 247kts
24-Jan-23 19:22 39.688826 -112.450373 247 9631ft 233kts
24-Jan-23 19:23 39.641962 -112.503052 181 9608ft 248kts
24-Jan-23 19:24 39.574493 -112.501082 182 8626ft 238kts
24-Jan-23 19:25 39.512187 -112.501448 181 7374ft 211kts
24-Jan-23 19:26 39.456080 -112.501780 180 6251ft 182kts
24-Jan-23 19:27 39.416329 -112.501985 177 5264ft 124kts
24-Jan-23 19:28 39.384606 -112.502203 181 4759ft 90kts
24-Jan-23 19:29 39.378686 -112.502307 140 4760ft 0kts
24-Jan-23 19:30 39.375868 -112.503814 310 4757ft 29kts
24-Jan-23 19:31 39.383562 -112.512020 45 4764ft 27kts
24-Jan-23 19:32 39.385936 -112.512397 313 4762ft 3kts

Navigation Log

Ident Type
Flight plan parsing failed, navigation log unavailable